sensor_id;sensor_type;location;lat;lon;timestamp;pressure;altitude;pressure_sealevel;temperature;humidity
70921;BME280;58572;48.110;19.838;2022-12-29T00:01:27;98415.28;;;-0.28;80.47
70921;BME280;58572;48.110;19.838;2022-12-29T00:03:54;98389.13;;;-0.39;80.78
70921;BME280;58572;48.110;19.838;2022-12-29T00:06:23;98421.06;;;-0.18;80.43
70921;BME280;58572;48.110;19.838;2022-12-29T00:08:50;98416.09;;;-0.27;81.02
70921;BME280;58572;48.110;19.838;2022-12-29T00:11:18;98418.38;;;-0.24;81.02
70921;BME280;58572;48.110;19.838;2022-12-29T00:13:47;98426.78;;;-0.21;81.34
70921;BME280;58572;48.110;19.838;2022-12-29T00:16:32;98423.53;;;-0.10;80.62
70921;BME280;58572;48.110;19.838;2022-12-29T00:19:00;98423.97;;;-0.06;80.67
70921;BME280;58572;48.110;19.838;2022-12-29T00:21:29;98417.97;;;-0.15;81.47
70921;BME280;58572;48.110;19.838;2022-12-29T00:24:16;98423.19;;;0.07;80.38
70921;BME280;58572;48.110;19.838;2022-12-29T00:27:10;98419.09;;;0.63;77.57
70921;BME280;58572;48.110;19.838;2022-12-29T00:29:54;98410.84;;;0.91;76.40
70921;BME280;58572;48.110;19.838;2022-12-29T00:32:39;98429.41;;;0.40;77.94
70921;BME280;58572;48.110;19.838;2022-12-29T00:35:27;98417.47;;;0.23;78.64
70921;BME280;58572;48.110;19.838;2022-12-29T00:38:00;98413.75;;;0.30;78.36
70921;BME280;58572;48.110;19.838;2022-12-29T00:40:45;98410.25;;;0.70;76.83
70921;BME280;58572;48.110;19.838;2022-12-29T00:43:36;98411.69;;;0.72;77.00
70921;BME280;58572;48.110;19.838;2022-12-29T00:46:20;98418.97;;;-0.22;78.86
70921;BME280;58572;48.110;19.838;2022-12-29T00:48:47;98424.44;;;0.11;79.36
70921;BME280;58572;48.110;19.838;2022-12-29T00:51:31;98414.50;;;-0.02;79.04
70921;BME280;58572;48.110;19.838;2022-12-29T00:53:59;98410.47;;;0.42;77.56
70921;BME280;58572;48.110;19.838;2022-12-29T00:56:27;98403.88;;;0.38;76.99
70921;BME280;58572;48.110;19.838;2022-12-29T00:58:54;98411.28;;;0.42;77.36
70921;BME280;58572;48.110;19.838;2022-12-29T01:01:21;98409.03;;;0.26;77.79
70921;BME280;58572;48.110;19.838;2022-12-29T01:03:48;98396.66;;;0.12;79.47
70921;BME280;58572;48.110;19.838;2022-12-29T01:06:15;98394.22;;;0.23;78.85
70921;BME280;58572;48.110;19.838;2022-12-29T01:08:42;98396.06;;;0.62;76.47
70921;BME280;58572;48.110;19.838;2022-12-29T01:11:12;98406.72;;;0.82;76.19
70921;BME280;58572;48.110;19.838;2022-12-29T01:13:38;98402.84;;;0.58;76.46
70921;BME280;58572;48.110;19.838;2022-12-29T01:16:06;98389.28;;;0.40;76.67
70921;BME280;58572;48.110;19.838;2022-12-29T01:18:33;98341.78;;;0.16;76.84
70921;BME280;58572;48.110;19.838;2022-12-29T01:21:02;98409.66;;;0.41;77.47
70921;BME280;58572;48.110;19.838;2022-12-29T01:23:29;98412.31;;;0.68;76.40
70921;BME280;58572;48.110;19.838;2022-12-29T01:25:57;98403.47;;;0.60;77.01
70921;BME280;58572;48.110;19.838;2022-12-29T01:28:25;98402.84;;;0.58;77.19
70921;BME280;58572;48.110;19.838;2022-12-29T01:30:52;98404.50;;;0.13;77.27
70921;BME280;58572;48.110;19.838;2022-12-29T01:33:19;98409.09;;;-0.28;80.93
70921;BME280;58572;48.110;19.838;2022-12-29T01:35:46;98386.53;;;-0.13;80.32
70921;BME280;58572;48.110;19.838;2022-12-29T01:38:13;98389.41;;;-0.08;80.21
70921;BME280;58572;48.110;19.838;2022-12-29T01:40:44;98385.16;;;0.44;78.03
70921;BME280;58572;48.110;19.838;2022-12-29T01:43:12;98390.28;;;0.66;77.09
70921;BME280;58572;48.110;19.838;2022-12-29T01:45:45;98391.53;;;0.56;77.44
70921;BME280;58572;48.110;19.838;2022-12-29T01:48:13;98395.25;;;0.36;77.98
70921;BME280;58572;48.110;19.838;2022-12-29T01:50:45;98398.94;;;0.21;77.46
70921;BME280;58572;48.110;19.838;2022-12-29T01:53:16;98352.81;;;-0.14;77.67
70921;BME280;58572;48.110;19.838;2022-12-29T01:55:48;98408.31;;;-0.09;77.91
70921;BME280;58572;48.110;19.838;2022-12-29T01:58:18;98407.31;;;-0.02;77.97
70921;BME280;58572;48.110;19.838;2022-12-29T02:00:48;98406.34;;;0.26;77.59
70921;BME280;58572;48.110;19.838;2022-12-29T02:03:17;98399.38;;;0.38;77.60
70921;BME280;58572;48.110;19.838;2022-12-29T02:05:48;98398.75;;;0.36;78.51
70921;BME280;58572;48.110;19.838;2022-12-29T02:08:19;98320.75;;;-0.14;77.85
70921;BME280;58572;48.110;19.838;2022-12-29T02:10:47;98395.72;;;-0.42;78.33
70921;BME280;58572;48.110;19.838;2022-12-29T02:13:15;98390.19;;;-0.88;81.01
70921;BME280;58572;48.110;19.838;2022-12-29T02:15:51;98372.47;;;-0.54;79.82
70921;BME280;58572;48.110;19.838;2022-12-29T02:18:30;98377.28;;;-0.04;78.52
70921;BME280;58572;48.110;19.838;2022-12-29T02:24:27;98372.63;;;0.18;78.06
70921;BME280;58572;48.110;19.838;2022-12-29T02:27:29;98371.16;;;0.55;76.25
70921;BME280;58572;48.110;19.838;2022-12-29T02:30:13;98374.25;;;0.52;76.80
70921;BME280;58572;48.110;19.838;2022-12-29T02:32:50;98364.38;;;0.46;75.58
70921;BME280;58572;48.110;19.838;2022-12-29T02:35:25;98365.63;;;0.50;76.53
70921;BME280;58572;48.110;19.838;2022-12-29T02:38:02;98354.91;;;0.50;76.95
70921;BME280;58572;48.110;19.838;2022-12-29T02:40:38;98365.22;;;0.01;77.62
70921;BME280;58572;48.110;19.838;2022-12-29T02:43:16;98356.16;;;0.15;78.14
70921;BME280;58572;48.110;19.838;2022-12-29T02:45:51;98354.94;;;0.30;76.85
70921;BME280;58572;48.110;19.838;2022-12-29T02:48:25;98362.53;;;0.53;76.90
70921;BME280;58572;48.110;19.838;2022-12-29T02:51:00;98367.69;;;0.35;77.15
70921;BME280;58572;48.110;19.838;2022-12-29T02:53:29;98374.25;;;0.46;76.96
70921;BME280;58572;48.110;19.838;2022-12-29T02:56:14;98368.91;;;0.52;76.40
70921;BME280;58572;48.110;19.838;2022-12-29T02:58:41;98366.25;;;0.26;77.43
70921;BME280;58572;48.110;19.838;2022-12-29T03:01:21;98363.16;;;0.42;77.01
70921;BME280;58572;48.110;19.838;2022-12-29T03:04:16;98365.63;;;0.17;78.01
70921;BME280;58572;48.110;19.838;2022-12-29T03:06:52;98365.78;;;-0.04;75.12
70921;BME280;58572;48.110;19.838;2022-12-29T03:09:31;98323.69;;;0.05;77.04
70921;BME280;58572;48.110;19.838;2022-12-29T03:12:06;98365.00;;;0.09;77.74
70921;BME280;58572;48.110;19.838;2022-12-29T03:14:44;98357.19;;;0.34;77.54
70921;BME280;58572;48.110;19.838;2022-12-29T03:17:39;98353.09;;;0.31;76.13
70921;BME280;58572;48.110;19.838;2022-12-29T03:20:10;98366.28;;;-0.61;78.47
70921;BME280;58572;48.110;19.838;2022-12-29T03:22:44;98361.13;;;-0.63;79.14
70921;BME280;58572;48.110;19.838;2022-12-29T03:25:16;98352.66;;;0.01;78.50
70921;BME280;58572;48.110;19.838;2022-12-29T03:27:48;98352.06;;;0.19;77.34
70921;BME280;58572;48.110;19.838;2022-12-29T03:30:16;98298.94;;;-0.37;77.49
70921;BME280;58572;48.110;19.838;2022-12-29T03:32:46;98349.47;;;-0.42;78.67
70921;BME280;58572;48.110;19.838;2022-12-29T03:35:16;98341.31;;;-0.21;79.73
70921;BME280;58572;48.110;19.838;2022-12-29T03:37:49;98346.25;;;-0.18;81.23
70921;BME280;58572;48.110;19.838;2022-12-29T03:40:18;98342.81;;;0.08;80.38
70921;BME280;58572;48.110;19.838;2022-12-29T03:42:48;98309.69;;;0.03;80.39
70921;BME280;58572;48.110;19.838;2022-12-29T03:45:15;98307.22;;;0.14;80.62
70921;BME280;58572;48.110;19.838;2022-12-29T03:47:42;98335.59;;;0.22;81.38
70921;BME280;58572;48.110;19.838;2022-12-29T03:50:11;98325.28;;;0.45;81.25
70921;BME280;58572;48.110;19.838;2022-12-29T03:52:40;98317.06;;;0.53;80.63
70921;BME280;58572;48.110;19.838;2022-12-29T03:55:08;98328.97;;;0.64;81.08
70921;BME280;58572;48.110;19.838;2022-12-29T03:57:35;98318.19;;;0.90;79.45
70921;BME280;58572;48.110;19.838;2022-12-29T04:00:04;98314.94;;;0.82;79.28
70921;BME280;58572;48.110;19.838;2022-12-29T04:02:31;98313.25;;;0.94;78.76
70921;BME280;58572;48.110;19.838;2022-12-29T04:04:58;98302.16;;;0.84;79.84
70921;BME280;58572;48.110;19.838;2022-12-29T04:07:25;98308.06;;;1.06;78.12
70921;BME280;58572;48.110;19.838;2022-12-29T04:09:54;98308.72;;;0.88;79.60
70921;BME280;58572;48.110;19.838;2022-12-29T04:12:21;98305.00;;;0.95;78.33
70921;BME280;58572;48.110;19.838;2022-12-29T04:14:47;98322.34;;;0.80;77.89
70921;BME280;58572;48.110;19.838;2022-12-29T04:17:14;98318.63;;;0.87;80.08
70921;BME280;58572;48.110;19.838;2022-12-29T04:19:41;98316.34;;;0.91;80.31
70921;BME280;58572;48.110;19.838;2022-12-29T04:22:08;98318.13;;;1.17;78.12
70921;BME280;58572;48.110;19.838;2022-12-29T04:24:37;98308.72;;;0.94;80.11
70921;BME280;58572;48.110;19.838;2022-12-29T04:27:05;98281.59;;;0.78;79.30
70921;BME280;58572;48.110;19.838;2022-12-29T04:29:32;98209.28;;;0.40;80.02
70921;BME280;58572;48.110;19.838;2022-12-29T04:31:59;98303.34;;;0.94;79.79
70921;BME280;58572;48.110;19.838;2022-12-29T04:34:26;98178.06;;;0.27;79.23
70921;BME280;58572;48.110;19.838;2022-12-29T04:36:53;98303.53;;;1.00;78.44
70921;BME280;58572;48.110;19.838;2022-12-29T04:39:21;98305.81;;;0.96;78.68
70921;BME280;58572;48.110;19.838;2022-12-29T04:41:47;98304.38;;;1.00;79.92
70921;BME280;58572;48.110;19.838;2022-12-29T04:44:16;98308.06;;;1.12;79.46
70921;BME280;58572;48.110;19.838;2022-12-29T04:46:43;98307.66;;;1.09;79.41
70921;BME280;58572;48.110;19.838;2022-12-29T04:49:10;98301.31;;;0.90;79.89
70921;BME280;58572;48.110;19.838;2022-12-29T04:51:37;98298.47;;;0.78;80.54
70921;BME280;58572;48.110;19.838;2022-12-29T04:54:04;98293.28;;;0.90;80.44
70921;BME280;58572;48.110;19.838;2022-12-29T04:56:31;98296.94;;;1.09;79.93
70921;BME280;58572;48.110;19.838;2022-12-29T04:58:58;98293.88;;;1.05;79.93
70921;BME280;58572;48.110;19.838;2022-12-29T05:01:27;98281.88;;;1.14;79.05
70921;BME280;58572;48.110;19.838;2022-12-29T05:03:54;98289.38;;;0.86;79.53
70921;BME280;58572;48.110;19.838;2022-12-29T05:06:21;98280.31;;;0.93;79.92
70921;BME280;58572;48.110;19.838;2022-12-29T05:08:48;98283.25;;;0.79;80.13
70921;BME280;58572;48.110;19.838;2022-12-29T05:11:15;98272.13;;;0.82;80.34
70921;BME280;58572;48.110;19.838;2022-12-29T05:13:45;98277.09;;;1.23;78.99
70921;BME280;58572;48.110;19.838;2022-12-29T05:16:12;98245.25;;;0.57;80.15
70921;BME280;58572;48.110;19.838;2022-12-29T05:18:40;98280.09;;;1.40;78.00
70921;BME280;58572;48.110;19.838;2022-12-29T05:21:07;98283.63;;;0.82;79.94
70921;BME280;58572;48.110;19.838;2022-12-29T05:23:34;98269.84;;;1.30;78.40
70921;BME280;58572;48.110;19.838;2022-12-29T05:26:02;98268.13;;;0.98;80.29
70921;BME280;58572;48.110;19.838;2022-12-29T05:28:29;98263.00;;;0.96;79.62
70921;BME280;58572;48.110;19.838;2022-12-29T05:30:56;98264.28;;;0.87;79.79
70921;BME280;58572;48.110;19.838;2022-12-29T05:33:23;98232.91;;;1.07;79.32
70921;BME280;58572;48.110;19.838;2022-12-29T05:35:51;98231.44;;;0.60;79.63
70921;BME280;58572;48.110;19.838;2022-12-29T05:38:18;98259.72;;;0.94;79.61
70921;BME280;58572;48.110;19.838;2022-12-29T05:40:45;98269.09;;;1.16;78.81
70921;BME280;58572;48.110;19.838;2022-12-29T05:43:12;98199.75;;;0.63;78.55
70921;BME280;58572;48.110;19.838;2022-12-29T05:45:39;98280.75;;;0.84;79.46
70921;BME280;58572;48.110;19.838;2022-12-29T05:48:06;98287.28;;;1.01;79.00
70921;BME280;58572;48.110;19.838;2022-12-29T05:50:33;98283.97;;;1.12;78.49
70921;BME280;58572;48.110;19.838;2022-12-29T05:53:02;98275.78;;;1.39;78.35
70921;BME280;58572;48.110;19.838;2022-12-29T05:55:29;98272.75;;;1.28;77.26
70921;BME280;58572;48.110;19.838;2022-12-29T05:57:56;98274.72;;;1.08;78.82
70921;BME280;58572;48.110;19.838;2022-12-29T06:00:23;98283.81;;;0.87;80.29
70921;BME280;58572;48.110;19.838;2022-12-29T06:02:50;98272.53;;;0.79;80.28
70921;BME280;58572;48.110;19.838;2022-12-29T06:05:17;98281.16;;;0.87;80.69
70921;BME280;58572;48.110;19.838;2022-12-29T06:07:45;98283.16;;;1.05;80.31
70921;BME280;58572;48.110;19.838;2022-12-29T06:10:13;98029.44;;;-0.45;78.86
70921;BME280;58572;48.110;19.838;2022-12-29T06:12:40;98284.22;;;1.42;77.77
70921;BME280;58572;48.110;19.838;2022-12-29T06:15:08;98273.88;;;1.46;78.14
70921;BME280;58572;48.110;19.838;2022-12-29T06:17:35;98276.03;;;1.62;77.22
70921;BME280;58572;48.110;19.838;2022-12-29T06:20:02;98268.69;;;1.19;78.89
70921;BME280;58572;48.110;19.838;2022-12-29T06:22:30;98257.81;;;1.08;79.37
70921;BME280;58572;48.110;19.838;2022-12-29T06:24:57;98276.56;;;1.01;80.29
70921;BME280;58572;48.110;19.838;2022-12-29T06:27:25;98278.53;;;1.25;78.74
70921;BME280;58572;48.110;19.838;2022-12-29T06:29:53;98272.97;;;1.58;77.84
70921;BME280;58572;48.110;19.838;2022-12-29T06:32:20;98266.28;;;1.43;78.18
70921;BME280;58572;48.110;19.838;2022-12-29T06:34:47;98269.94;;;1.48;78.13
70921;BME280;58572;48.110;19.838;2022-12-29T06:37:14;98274.22;;;1.24;79.16
70921;BME280;58572;48.110;19.838;2022-12-29T06:39:41;98269.56;;;1.00;79.19
70921;BME280;58572;48.110;19.838;2022-12-29T06:42:09;98280.97;;;1.34;77.56
70921;BME280;58572;48.110;19.838;2022-12-29T06:44:38;98279.84;;;1.10;79.07
70921;BME280;58572;48.110;19.838;2022-12-29T06:47:05;98279.56;;;1.24;78.66
70921;BME280;58572;48.110;19.838;2022-12-29T06:49:32;98256.34;;;1.12;78.37
70921;BME280;58572;48.110;19.838;2022-12-29T06:51:59;98283.03;;;1.32;78.98
70921;BME280;58572;48.110;19.838;2022-12-29T06:54:29;98284.06;;;1.31;78.18
70921;BME280;58572;48.110;19.838;2022-12-29T06:56:57;98287.56;;;1.31;78.47
70921;BME280;58572;48.110;19.838;2022-12-29T06:59:24;98275.91;;;1.50;77.82
70921;BME280;58572;48.110;19.838;2022-12-29T07:01:53;98297.66;;;1.67;77.38
70921;BME280;58572;48.110;19.838;2022-12-29T07:04:20;98287.31;;;1.71;77.51
70921;BME280;58572;48.110;19.838;2022-12-29T07:06:47;98284.84;;;1.38;78.38
70921;BME280;58572;48.110;19.838;2022-12-29T07:09:14;98309.66;;;1.58;77.68
70921;BME280;58572;48.110;19.838;2022-12-29T07:11:42;98285.50;;;1.65;76.25
70921;BME280;58572;48.110;19.838;2022-12-29T07:14:10;98303.59;;;1.38;76.54
70921;BME280;58572;48.110;19.838;2022-12-29T07:16:38;98305.31;;;1.25;77.59
70921;BME280;58572;48.110;19.838;2022-12-29T07:19:06;98312.59;;;1.50;78.27
70921;BME280;58572;48.110;19.838;2022-12-29T07:21:33;98313.31;;;1.70;78.35
70921;BME280;58572;48.110;19.838;2022-12-29T07:24:01;98316.75;;;2.09;75.94
70921;BME280;58572;48.110;19.838;2022-12-29T07:26:28;98316.41;;;1.67;77.38
70921;BME280;58572;48.110;19.838;2022-12-29T07:28:55;98315.75;;;1.72;77.31
70921;BME280;58572;48.110;19.838;2022-12-29T07:31:23;98310.44;;;1.97;76.73
70921;BME280;58572;48.110;19.838;2022-12-29T07:33:50;98317.28;;;1.92;76.10
70921;BME280;58572;48.110;19.838;2022-12-29T07:36:19;98316.41;;;1.99;76.80
70921;BME280;58572;48.110;19.838;2022-12-29T07:38:46;98316.84;;;1.96;77.48
70921;BME280;58572;48.110;19.838;2022-12-29T07:41:13;98322.03;;;1.59;76.79
70921;BME280;58572;48.110;19.838;2022-12-29T07:43:40;98323.34;;;2.13;76.14
70921;BME280;58572;48.110;19.838;2022-12-29T07:46:08;98320.66;;;1.81;77.29
70921;BME280;58572;48.110;19.838;2022-12-29T07:48:35;98316.22;;;1.93;75.69
70921;BME280;58572;48.110;19.838;2022-12-29T07:51:02;98311.31;;;1.90;76.50
70921;BME280;58572;48.110;19.838;2022-12-29T07:53:31;98304.19;;;1.78;77.05
70921;BME280;58572;48.110;19.838;2022-12-29T07:55:58;98300.41;;;1.85;77.69
70921;BME280;58572;48.110;19.838;2022-12-29T07:58:25;98275.00;;;1.63;77.66
70921;BME280;58572;48.110;19.838;2022-12-29T08:00:53;98297.69;;;1.60;78.03
70921;BME280;58572;48.110;19.838;2022-12-29T08:03:20;98307.84;;;1.83;76.86
70921;BME280;58572;48.110;19.838;2022-12-29T08:05:48;98303.00;;;1.99;77.18
70921;BME280;58572;48.110;19.838;2022-12-29T08:08:15;98300.53;;;2.47;75.34
70921;BME280;58572;48.110;19.838;2022-12-29T08:10:44;98274.00;;;1.89;75.80
70921;BME280;58572;48.110;19.838;2022-12-29T08:13:11;98305.56;;;1.87;76.50
70921;BME280;58572;48.110;19.838;2022-12-29T08:15:38;98307.41;;;1.86;76.89
70921;BME280;58572;48.110;19.838;2022-12-29T08:18:05;98320.75;;;2.24;76.06
70921;BME280;58572;48.110;19.838;2022-12-29T08:20:32;98312.00;;;2.11;75.37
70921;BME280;58572;48.110;19.838;2022-12-29T08:22:59;98310.47;;;1.90;77.33
70921;BME280;58572;48.110;19.838;2022-12-29T08:25:27;98304.13;;;2.16;76.73
70921;BME280;58572;48.110;19.838;2022-12-29T08:27:55;98303.97;;;2.04;76.02
70921;BME280;58572;48.110;19.838;2022-12-29T08:30:23;98297.28;;;1.88;76.03
70921;BME280;58572;48.110;19.838;2022-12-29T08:32:50;98196.25;;;1.01;77.38
70921;BME280;58572;48.110;19.838;2022-12-29T08:35:17;98293.25;;;1.48;77.35
70921;BME280;58572;48.110;19.838;2022-12-29T08:37:44;98291.00;;;1.76;76.46
70921;BME280;58572;48.110;19.838;2022-12-29T08:40:11;98300.13;;;1.69;75.38
70921;BME280;58572;48.110;19.838;2022-12-29T08:42:39;98278.28;;;1.65;76.16
70921;BME280;58572;48.110;19.838;2022-12-29T08:45:09;98300.03;;;1.82;76.89
70921;BME280;58572;48.110;19.838;2022-12-29T08:47:36;98298.22;;;2.01;75.88
70921;BME280;58572;48.110;19.838;2022-12-29T08:50:03;98227.91;;;1.49;76.17
70921;BME280;58572;48.110;19.838;2022-12-29T08:52:31;98296.75;;;2.11;76.66
70921;BME280;58572;48.110;19.838;2022-12-29T08:54:58;98288.38;;;1.95;75.54
70921;BME280;58572;48.110;19.838;2022-12-29T08:57:25;98295.06;;;1.85;75.35
70921;BME280;58572;48.110;19.838;2022-12-29T08:59:52;98225.13;;;1.62;75.50
70921;BME280;58572;48.110;19.838;2022-12-29T09:02:21;98206.09;;;1.70;74.36
70921;BME280;58572;48.110;19.838;2022-12-29T09:04:48;98192.81;;;1.57;74.87
70921;BME280;58572;48.110;19.838;2022-12-29T09:07:15;98284.78;;;2.32;75.48
70921;BME280;58572;48.110;19.838;2022-12-29T09:09:42;98288.63;;;2.18;74.97
70921;BME280;58572;48.110;19.838;2022-12-29T09:12:09;98281.84;;;2.59;75.32
70921;BME280;58572;48.110;19.838;2022-12-29T09:14:36;98272.19;;;2.33;74.48
70921;BME280;58572;48.110;19.838;2022-12-29T09:17:03;98274.03;;;2.14;73.24
70921;BME280;58572;48.110;19.838;2022-12-29T09:19:49;98275.72;;;2.51;74.36
70921;BME280;58572;48.110;19.838;2022-12-29T09:22:17;98272.78;;;2.35;73.50
70921;BME280;58572;48.110;19.838;2022-12-29T09:24:44;98274.16;;;2.62;72.61
70921;BME280;58572;48.110;19.838;2022-12-29T09:27:11;98271.72;;;2.61;71.87
70921;BME280;58572;48.110;19.838;2022-12-29T09:29:38;98265.88;;;3.00;72.91
70921;BME280;58572;48.110;19.838;2022-12-29T09:32:06;98259.16;;;3.09;72.36
70921;BME280;58572;48.110;19.838;2022-12-29T09:34:33;98196.69;;;2.11;72.42
70921;BME280;58572;48.110;19.838;2022-12-29T09:37:02;98228.09;;;3.32;70.64
70921;BME280;58572;48.110;19.838;2022-12-29T09:39:29;98259.47;;;2.46;72.16
70921;BME280;58572;48.110;19.838;2022-12-29T09:42:01;98245.38;;;2.51;73.38
70921;BME280;58572;48.110;19.838;2022-12-29T09:44:46;98241.59;;;2.59;74.21
70921;BME280;58572;48.110;19.838;2022-12-29T09:47:16;98239.06;;;2.64;73.85
70921;BME280;58572;48.110;19.838;2022-12-29T09:49:47;98202.22;;;2.71;73.34
70921;BME280;58572;48.110;19.838;2022-12-29T09:52:21;98191.56;;;2.64;73.58
70921;BME280;58572;48.110;19.838;2022-12-29T09:54:53;98227.50;;;3.11;72.92
70921;BME280;58572;48.110;19.838;2022-12-29T09:57:23;98229.78;;;3.14;72.78
70921;BME280;58572;48.110;19.838;2022-12-29T09:59:55;98220.94;;;3.26;73.17
70921;BME280;58572;48.110;19.838;2022-12-29T10:02:36;98214.19;;;3.35;73.33
70921;BME280;58572;48.110;19.838;2022-12-29T10:05:08;98210.72;;;3.46;72.81
70921;BME280;58572;48.110;19.838;2022-12-29T10:07:45;98219.25;;;3.13;71.72
70921;BME280;58572;48.110;19.838;2022-12-29T10:10:23;98216.34;;;3.44;72.50
70921;BME280;58572;48.110;19.838;2022-12-29T10:13:01;98214.66;;;3.32;70.67
70921;BME280;58572;48.110;19.838;2022-12-29T10:15:40;98208.84;;;3.46;70.19
70921;BME280;58572;48.110;19.838;2022-12-29T10:21:08;98219.38;;;3.48;71.22
70921;BME280;58572;48.110;19.838;2022-12-29T10:23:44;98219.81;;;3.33;69.50
70921;BME280;58572;48.110;19.838;2022-12-29T10:26:15;98214.97;;;3.65;71.33
70921;BME280;58572;48.110;19.838;2022-12-29T10:28:48;98215.22;;;3.64;69.45
70921;BME280;58572;48.110;19.838;2022-12-29T10:31:21;98203.53;;;3.81;71.59
70921;BME280;58572;48.110;19.838;2022-12-29T10:33:50;98213.03;;;3.31;71.90
70921;BME280;58572;48.110;19.838;2022-12-29T10:36:23;98177.34;;;2.45;72.01
70921;BME280;58572;48.110;19.838;2022-12-29T10:39:01;98216.63;;;3.06;71.18
70921;BME280;58572;48.110;19.838;2022-12-29T10:41:36;98207.09;;;3.40;69.94
70921;BME280;58572;48.110;19.838;2022-12-29T10:44:04;98212.03;;;3.55;70.44
70921;BME280;58572;48.110;19.838;2022-12-29T10:46:35;98197.00;;;3.77;68.50
70921;BME280;58572;48.110;19.838;2022-12-29T10:49:04;98191.38;;;3.79;70.67
70921;BME280;58572;48.110;19.838;2022-12-29T10:51:36;98178.94;;;3.43;71.31
70921;BME280;58572;48.110;19.838;2022-12-29T10:54:11;98183.06;;;3.15;72.79
70921;BME280;58572;48.110;19.838;2022-12-29T10:56:54;98179.78;;;3.13;72.49
70921;BME280;58572;48.110;19.838;2022-12-29T10:59:41;98137.53;;;3.20;71.75
70921;BME280;58572;48.110;19.838;2022-12-29T11:02:38;98173.97;;;3.16;72.41
70921;BME280;58572;48.110;19.838;2022-12-29T11:05:10;98169.47;;;3.10;71.78
70921;BME280;58572;48.110;19.838;2022-12-29T11:07:40;98166.50;;;3.83;70.80
70921;BME280;58572;48.110;19.838;2022-12-29T11:10:21;98157.13;;;3.86;71.52
70921;BME280;58572;48.110;19.838;2022-12-29T11:12:57;98127.19;;;4.18;70.48
70921;BME280;58572;48.110;19.838;2022-12-29T11:15:25;98151.63;;;3.58;71.26
70921;BME280;58572;48.110;19.838;2022-12-29T11:17:53;98144.59;;;3.45;72.92
70921;BME280;58572;48.110;19.838;2022-12-29T11:20:32;98040.94;;;3.14;71.13
70921;BME280;58572;48.110;19.838;2022-12-29T11:23:00;98055.03;;;3.09;69.46
70921;BME280;58572;48.110;19.838;2022-12-29T11:25:29;98156.06;;;3.99;71.47
70921;BME280;58572;48.110;19.838;2022-12-29T11:27:59;98143.81;;;3.91;70.59
70921;BME280;58572;48.110;19.838;2022-12-29T11:30:28;98148.00;;;4.34;71.59
70921;BME280;58572;48.110;19.838;2022-12-29T11:32:57;98154.84;;;4.65;69.74
70921;BME280;58572;48.110;19.838;2022-12-29T11:35:33;98154.75;;;4.88;68.94
70921;BME280;58572;48.110;19.838;2022-12-29T11:38:02;98157.75;;;4.63;69.60
70921;BME280;58572;48.110;19.838;2022-12-29T11:40:31;98160.50;;;4.52;70.66
70921;BME280;58572;48.110;19.838;2022-12-29T11:43:05;98156.44;;;5.06;69.40
70921;BME280;58572;48.110;19.838;2022-12-29T11:45:34;98155.53;;;5.00;68.13
70921;BME280;58572;48.110;19.838;2022-12-29T11:48:08;98155.53;;;5.29;68.69
70921;BME280;58572;48.110;19.838;2022-12-29T11:50:37;98158.25;;;5.17;69.27
70921;BME280;58572;48.110;19.838;2022-12-29T11:53:13;98152.41;;;5.20;68.78
70921;BME280;58572;48.110;19.838;2022-12-29T11:55:53;98152.56;;;4.33;70.06
70921;BME280;58572;48.110;19.838;2022-12-29T11:58:28;98047.50;;;3.65;69.12
70921;BME280;58572;48.110;19.838;2022-12-29T12:01:01;98153.34;;;4.57;69.05
70921;BME280;58572;48.110;19.838;2022-12-29T12:03:32;98120.38;;;4.15;68.77
70921;BME280;58572;48.110;19.838;2022-12-29T12:06:04;98135.75;;;4.66;68.37
70921;BME280;58572;48.110;19.838;2022-12-29T12:08:36;98142.69;;;4.51;69.20
70921;BME280;58572;48.110;19.838;2022-12-29T12:11:09;98131.84;;;4.74;68.83
70921;BME280;58572;48.110;19.838;2022-12-29T12:13:41;98135.13;;;4.76;69.32
70921;BME280;58572;48.110;19.838;2022-12-29T12:16:15;98133.69;;;4.85;70.37
70921;BME280;58572;48.110;19.838;2022-12-29T12:18:47;98145.38;;;4.51;69.45
70921;BME280;58572;48.110;19.838;2022-12-29T12:21:22;98139.81;;;4.29;71.33
70921;BME280;58572;48.110;19.838;2022-12-29T12:23:56;98136.09;;;4.70;70.37
70921;BME280;58572;48.110;19.838;2022-12-29T12:26:32;98135.25;;;4.69;70.29
70921;BME280;58572;48.110;19.838;2022-12-29T12:29:08;98120.78;;;4.87;68.86
70921;BME280;58572;48.110;19.838;2022-12-29T12:31:45;98130.84;;;4.63;70.27
70921;BME280;58572;48.110;19.838;2022-12-29T12:34:27;98133.78;;;4.62;70.39
70921;BME280;58572;48.110;19.838;2022-12-29T12:37:18;98028.56;;;4.23;68.26
70921;BME280;58572;48.110;19.838;2022-12-29T12:46:12;98118.38;;;4.45;68.92
70921;BME280;58572;48.110;19.838;2022-12-29T12:48:56;98118.19;;;3.65;71.04
70921;BME280;58572;48.110;19.838;2022-12-29T12:51:32;98106.84;;;3.87;71.63
70921;BME280;58572;48.110;19.838;2022-12-29T12:54:12;98105.56;;;3.66;71.78
70921;BME280;58572;48.110;19.838;2022-12-29T12:56:58;98083.56;;;4.04;70.50
70921;BME280;58572;48.110;19.838;2022-12-29T12:59:49;98106.38;;;3.55;71.48
70921;BME280;58572;48.110;19.838;2022-12-29T13:02:29;98111.41;;;3.51;72.80
70921;BME280;58572;48.110;19.838;2022-12-29T13:05:24;98102.31;;;3.75;73.22
70921;BME280;58572;48.110;19.838;2022-12-29T13:08:03;98102.06;;;3.65;73.91
70921;BME280;58572;48.110;19.838;2022-12-29T13:10:42;98068.63;;;3.38;73.78
70921;BME280;58572;48.110;19.838;2022-12-29T13:13:36;98101.72;;;3.85;73.33
70921;BME280;58572;48.110;19.838;2022-12-29T13:16:17;98101.09;;;3.25;75.26
70921;BME280;58572;48.110;19.838;2022-12-29T13:18:55;98106.03;;;3.51;73.86
70921;BME280;58572;48.110;19.838;2022-12-29T13:21:37;98113.63;;;3.54;72.75
70921;BME280;58572;48.110;19.838;2022-12-29T13:24:14;98058.94;;;3.60;72.37
70921;BME280;58572;48.110;19.838;2022-12-29T13:26:48;98128.38;;;3.87;71.92
70921;BME280;58572;48.110;19.838;2022-12-29T13:29:19;98095.63;;;3.78;71.20
70921;BME280;58572;48.110;19.838;2022-12-29T13:31:53;98130.72;;;3.71;73.03
70921;BME280;58572;48.110;19.838;2022-12-29T13:34:30;98131.03;;;3.40;72.36